sensor_id;sensor_type;location;lat;lon;timestamp;pressure;altitude;pressure_sealevel;temperature;humidity
26487;BME280;14425;56.136;40.360;2023-03-14T00:01:49;99603.91;;;-3.06;76.74
26487;BME280;14425;56.136;40.360;2023-03-14T00:04:14;99607.81;;;-2.90;75.99
26487;BME280;14425;56.136;40.360;2023-03-14T00:06:40;99610.91;;;-3.41;77.27
26487;BME280;14425;56.136;40.360;2023-03-14T00:09:06;99614.00;;;-3.91;82.41
26487;BME280;14425;56.136;40.360;2023-03-14T00:11:31;99615.84;;;-3.98;82.27
26487;BME280;14425;56.136;40.360;2023-03-14T00:13:57;99606.44;;;-2.87;78.79
26487;BME280;14425;56.136;40.360;2023-03-14T00:16:22;99591.56;;;-2.84;75.69
26487;BME280;14425;56.136;40.360;2023-03-14T00:18:48;99596.78;;;-3.39;78.19
26487;BME280;14425;56.136;40.360;2023-03-14T00:21:28;99588.59;;;-3.56;79.22
26487;BME280;14425;56.136;40.360;2023-03-14T00:23:54;99584.22;;;-3.67;80.41
26487;BME280;14425;56.136;40.360;2023-03-14T00:26:20;99583.91;;;-3.61;80.32
26487;BME280;14425;56.136;40.360;2023-03-14T00:28:50;99579.25;;;-3.76;80.64
26487;BME280;14425;56.136;40.360;2023-03-14T00:31:16;99580.59;;;-3.98;80.76
26487;BME280;14425;56.136;40.360;2023-03-14T00:33:43;99578.09;;;-4.07;82.81
26487;BME280;14425;56.136;40.360;2023-03-14T00:36:14;99584.63;;;-3.81;81.15
26487;BME280;14425;56.136;40.360;2023-03-14T00:38:41;99586.34;;;-4.72;85.23
26487;BME280;14425;56.136;40.360;2023-03-14T00:41:13;99584.19;;;-4.50;86.59
26487;BME280;14425;56.136;40.360;2023-03-14T00:43:39;99584.84;;;-4.61;87.11
26487;BME280;14425;56.136;40.360;2023-03-14T00:46:05;99581.69;;;-4.50;87.17
26487;BME280;14425;56.136;40.360;2023-03-14T00:48:31;99583.53;;;-4.75;87.09
26487;BME280;14425;56.136;40.360;2023-03-14T00:50:56;99582.94;;;-4.82;87.13
26487;BME280;14425;56.136;40.360;2023-03-14T00:53:22;99574.75;;;-4.53;89.39
26487;BME280;14425;56.136;40.360;2023-03-14T00:55:48;99566.63;;;-3.95;86.30
26487;BME280;14425;56.136;40.360;2023-03-14T00:58:15;99563.75;;;-3.89;83.62
26487;BME280;14425;56.136;40.360;2023-03-14T01:00:42;99570.81;;;-4.04;82.60
26487;BME280;14425;56.136;40.360;2023-03-14T01:03:09;99558.41;;;-4.11;84.55
26487;BME280;14425;56.136;40.360;2023-03-14T01:05:34;99562.19;;;-4.70;84.85
26487;BME280;14425;56.136;40.360;2023-03-14T01:08:01;99555.59;;;-4.42;86.02
26487;BME280;14425;56.136;40.360;2023-03-14T01:10:27;99561.47;;;-4.69;86.11
26487;BME280;14425;56.136;40.360;2023-03-14T01:12:53;99561.47;;;-4.69;86.67
26487;BME280;14425;56.136;40.360;2023-03-14T01:15:18;99560.88;;;-4.30;86.23
26487;BME280;14425;56.136;40.360;2023-03-14T01:17:44;99562.16;;;-4.25;85.37
26487;BME280;14425;56.136;40.360;2023-03-14T01:20:12;99551.84;;;-4.37;83.99
26487;BME280;14425;56.136;40.360;2023-03-14T01:22:39;99560.31;;;-4.36;85.25
26487;BME280;14425;56.136;40.360;2023-03-14T01:25:07;99550.53;;;-4.33;85.51
26487;BME280;14425;56.136;40.360;2023-03-14T01:27:33;99540.53;;;-4.51;86.24
26487;BME280;14425;56.136;40.360;2023-03-14T01:29:59;99540.72;;;-4.67;88.44
26487;BME280;14425;56.136;40.360;2023-03-14T01:32:25;99536.75;;;-4.73;88.05
26487;BME280;14425;56.136;40.360;2023-03-14T01:34:51;99539.25;;;-4.73;89.37
26487;BME280;14425;56.136;40.360;2023-03-14T01:37:19;99532.56;;;-5.18;90.84
26487;BME280;14425;56.136;40.360;2023-03-14T01:39:46;99530.25;;;-5.78;95.81
26487;BME280;14425;56.136;40.360;2023-03-14T01:42:12;99531.84;;;-5.78;98.21
26487;BME280;14425;56.136;40.360;2023-03-14T01:44:56;99534.50;;;-5.42;96.61
26487;BME280;14425;56.136;40.360;2023-03-14T01:47:23;99535.53;;;-5.13;93.84
26487;BME280;14425;56.136;40.360;2023-03-14T01:50:04;99537.16;;;-5.66;97.86
26487;BME280;14425;56.136;40.360;2023-03-14T01:52:39;99541.94;;;-5.61;99.25
26487;BME280;14425;56.136;40.360;2023-03-14T01:55:19;99538.19;;;-5.73;98.95
26487;BME280;14425;56.136;40.360;2023-03-14T01:57:52;99537.78;;;-5.43;98.27
26487;BME280;14425;56.136;40.360;2023-03-14T02:00:22;99548.81;;;-5.93;99.77
26487;BME280;14425;56.136;40.360;2023-03-14T02:02:51;99556.69;;;-5.72;99.41
26487;BME280;14425;56.136;40.360;2023-03-14T02:05:24;99555.97;;;-5.28;98.00
26487;BME280;14425;56.136;40.360;2023-03-14T02:07:58;99544.84;;;-5.12;95.42
26487;BME280;14425;56.136;40.360;2023-03-14T02:10:30;99542.06;;;-5.42;96.33
26487;BME280;14425;56.136;40.360;2023-03-14T02:12:59;99544.25;;;-5.80;98.07
26487;BME280;14425;56.136;40.360;2023-03-14T02:15:26;99550.03;;;-5.20;97.25
26487;BME280;14425;56.136;40.360;2023-03-14T02:17:52;99545.16;;;-5.79;98.52
26487;BME280;14425;56.136;40.360;2023-03-14T02:23:41;99542.81;;;-5.78;97.57
26487;BME280;14425;56.136;40.360;2023-03-14T02:26:23;99550.16;;;-6.14;100.00
26487;BME280;14425;56.136;40.360;2023-03-14T02:28:53;99555.59;;;-6.18;100.00
26487;BME280;14425;56.136;40.360;2023-03-14T02:31:19;99549.25;;;-6.15;100.00
26487;BME280;14425;56.136;40.360;2023-03-14T02:33:46;99526.03;;;-6.29;100.00
26487;BME280;14425;56.136;40.360;2023-03-14T02:36:14;99520.97;;;-6.47;100.00
26487;BME280;14425;56.136;40.360;2023-03-14T02:38:52;99509.31;;;-6.38;100.00
26487;BME280;14425;56.136;40.360;2023-03-14T02:41:19;99511.72;;;-6.30;100.00
26487;BME280;14425;56.136;40.360;2023-03-14T02:43:44;99495.19;;;-6.20;100.00
26487;BME280;14425;56.136;40.360;2023-03-14T02:46:13;99488.22;;;-6.31;100.00
26487;BME280;14425;56.136;40.360;2023-03-14T02:48:52;99478.53;;;-6.10;100.00
26487;BME280;14425;56.136;40.360;2023-03-14T02:51:20;99470.09;;;-6.11;100.00
26487;BME280;14425;56.136;40.360;2023-03-14T02:54:06;99451.19;;;-6.25;100.00
26487;BME280;14425;56.136;40.360;2023-03-14T02:56:37;99458.56;;;-6.18;100.00
26487;BME280;14425;56.136;40.360;2023-03-14T02:59:04;99465.69;;;-6.22;100.00
26487;BME280;14425;56.136;40.360;2023-03-14T03:01:29;99466.25;;;-6.25;100.00
26487;BME280;14425;56.136;40.360;2023-03-14T03:03:55;99470.25;;;-5.92;100.00
26487;BME280;14425;56.136;40.360;2023-03-14T03:06:20;99462.09;;;-5.89;100.00
26487;BME280;14425;56.136;40.360;2023-03-14T03:08:46;99451.78;;;-5.84;100.00
26487;BME280;14425;56.136;40.360;2023-03-14T03:11:11;99441.88;;;-5.82;100.00
26487;BME280;14425;56.136;40.360;2023-03-14T03:13:37;99439.34;;;-5.65;100.00
26487;BME280;14425;56.136;40.360;2023-03-14T03:16:03;99430.75;;;-5.49;100.00
26487;BME280;14425;56.136;40.360;2023-03-14T03:18:29;99429.00;;;-5.68;100.00
26487;BME280;14425;56.136;40.360;2023-03-14T03:20:54;99426.78;;;-5.73;100.00
26487;BME280;14425;56.136;40.360;2023-03-14T03:23:20;99408.00;;;-5.60;100.00
26487;BME280;14425;56.136;40.360;2023-03-14T03:25:50;99404.59;;;-5.60;100.00
26487;BME280;14425;56.136;40.360;2023-03-14T03:28:16;99391.72;;;-5.54;100.00
26487;BME280;14425;56.136;40.360;2023-03-14T03:30:42;99391.91;;;-5.62;100.00
26487;BME280;14425;56.136;40.360;2023-03-14T03:33:09;99378.53;;;-5.43;100.00
26487;BME280;14425;56.136;40.360;2023-03-14T03:35:35;99384.69;;;-5.22;100.00
26487;BME280;14425;56.136;40.360;2023-03-14T03:38:06;99368.06;;;-5.48;100.00
26487;BME280;14425;56.136;40.360;2023-03-14T03:40:32;99353.25;;;-5.36;100.00
26487;BME280;14425;56.136;40.360;2023-03-14T03:42:57;99364.00;;;-5.20;100.00
26487;BME280;14425;56.136;40.360;2023-03-14T03:45:23;99363.84;;;-5.21;100.00
26487;BME280;14425;56.136;40.360;2023-03-14T03:47:48;99374.16;;;-5.18;100.00
26487;BME280;14425;56.136;40.360;2023-03-14T03:50:14;99348.22;;;-4.99;100.00
26487;BME280;14425;56.136;40.360;2023-03-14T03:52:39;99354.25;;;-4.97;100.00
26487;BME280;14425;56.136;40.360;2023-03-14T03:55:05;99362.69;;;-4.97;100.00
26487;BME280;14425;56.136;40.360;2023-03-14T03:57:30;99355.88;;;-4.70;100.00
26487;BME280;14425;56.136;40.360;2023-03-14T03:59:56;99354.50;;;-4.86;100.00
26487;BME280;14425;56.136;40.360;2023-03-14T04:02:24;99349.81;;;-4.72;100.00
26487;BME280;14425;56.136;40.360;2023-03-14T04:04:49;99335.91;;;-4.50;99.58
26487;BME280;14425;56.136;40.360;2023-03-14T04:07:15;99335.28;;;-4.66;100.00
26487;BME280;14425;56.136;40.360;2023-03-14T04:09:40;99340.59;;;-4.63;100.00
26487;BME280;14425;56.136;40.360;2023-03-14T04:12:06;99323.50;;;-4.57;100.00
26487;BME280;14425;56.136;40.360;2023-03-14T04:14:31;99312.50;;;-4.49;100.00
26487;BME280;14425;56.136;40.360;2023-03-14T04:16:57;99307.06;;;-4.34;100.00
26487;BME280;14425;56.136;40.360;2023-03-14T04:19:22;99299.03;;;-4.49;100.00
26487;BME280;14425;56.136;40.360;2023-03-14T04:21:47;99290.03;;;-4.37;100.00
26487;BME280;14425;56.136;40.360;2023-03-14T04:24:13;99308.69;;;-4.54;100.00
26487;BME280;14425;56.136;40.360;2023-03-14T04:26:39;99275.81;;;-4.55;100.00
26487;BME280;14425;56.136;40.360;2023-03-14T04:29:04;99299.16;;;-4.48;100.00
26487;BME280;14425;56.136;40.360;2023-03-14T04:31:30;99269.25;;;-4.44;100.00
26487;BME280;14425;56.136;40.360;2023-03-14T04:33:55;99273.59;;;-4.33;100.00
26487;BME280;14425;56.136;40.360;2023-03-14T04:36:21;99292.09;;;-4.33;100.00
26487;BME280;14425;56.136;40.360;2023-03-14T04:38:46;99284.94;;;-4.47;100.00
26487;BME280;14425;56.136;40.360;2023-03-14T04:41:12;99260.53;;;-4.48;100.00
26487;BME280;14425;56.136;40.360;2023-03-14T04:43:37;99263.56;;;-4.23;100.00
26487;BME280;14425;56.136;40.360;2023-03-14T04:46:03;99249.81;;;-4.27;100.00
26487;BME280;14425;56.136;40.360;2023-03-14T04:48:29;99274.94;;;-4.07;100.00
26487;BME280;14425;56.136;40.360;2023-03-14T04:50:55;99256.00;;;-4.23;100.00
26487;BME280;14425;56.136;40.360;2023-03-14T04:53:20;99263.16;;;-3.98;100.00
26487;BME280;14425;56.136;40.360;2023-03-14T04:55:54;99249.09;;;-3.86;100.00
26487;BME280;14425;56.136;40.360;2023-03-14T04:58:21;99237.63;;;-3.82;100.00
26487;BME280;14425;56.136;40.360;2023-03-14T05:00:46;99224.84;;;-3.65;100.00
26487;BME280;14425;56.136;40.360;2023-03-14T05:03:14;99232.16;;;-3.58;100.00
26487;BME280;14425;56.136;40.360;2023-03-14T05:05:40;99221.19;;;-3.58;100.00
26487;BME280;14425;56.136;40.360;2023-03-14T05:08:05;99217.28;;;-3.65;100.00
26487;BME280;14425;56.136;40.360;2023-03-14T05:10:31;99204.28;;;-3.59;100.00
26487;BME280;14425;56.136;40.360;2023-03-14T05:12:56;99195.34;;;-3.56;100.00
26487;BME280;14425;56.136;40.360;2023-03-14T05:15:22;99185.25;;;-3.56;100.00
26487;BME280;14425;56.136;40.360;2023-03-14T05:17:47;99198.00;;;-3.54;100.00
26487;BME280;14425;56.136;40.360;2023-03-14T05:20:14;99186.03;;;-3.36;100.00
26487;BME280;14425;56.136;40.360;2023-03-14T05:22:41;99180.50;;;-3.32;100.00
26487;BME280;14425;56.136;40.360;2023-03-14T05:25:07;99189.94;;;-3.19;100.00
26487;BME280;14425;56.136;40.360;2023-03-14T05:27:33;99176.69;;;-3.17;100.00
26487;BME280;14425;56.136;40.360;2023-03-14T05:29:59;99192.84;;;-3.25;100.00
26487;BME280;14425;56.136;40.360;2023-03-14T05:32:24;99190.94;;;-3.17;100.00
26487;BME280;14425;56.136;40.360;2023-03-14T05:34:50;99183.47;;;-2.95;100.00
26487;BME280;14425;56.136;40.360;2023-03-14T05:37:15;99175.78;;;-2.97;100.00
26487;BME280;14425;56.136;40.360;2023-03-14T05:39:41;99147.25;;;-2.95;100.00
26487;BME280;14425;56.136;40.360;2023-03-14T05:42:06;99150.84;;;-3.04;100.00
26487;BME280;14425;56.136;40.360;2023-03-14T05:44:32;99147.00;;;-2.88;100.00
26487;BME280;14425;56.136;40.360;2023-03-14T05:47:06;99137.69;;;-3.00;100.00
26487;BME280;14425;56.136;40.360;2023-03-14T05:49:37;99142.47;;;-2.92;100.00
26487;BME280;14425;56.136;40.360;2023-03-14T05:52:16;99142.94;;;-2.76;100.00
26487;BME280;14425;56.136;40.360;2023-03-14T05:54:42;99138.53;;;-2.79;100.00
26487;BME280;14425;56.136;40.360;2023-03-14T05:57:07;99149.13;;;-2.83;100.00
26487;BME280;14425;56.136;40.360;2023-03-14T05:59:33;99131.09;;;-2.87;100.00
26487;BME280;14425;56.136;40.360;2023-03-14T06:01:58;99132.13;;;-2.95;100.00
26487;BME280;14425;56.136;40.360;2023-03-14T06:04:24;99133.53;;;-2.56;100.00
26487;BME280;14425;56.136;40.360;2023-03-14T06:06:50;99124.50;;;-2.43;100.00
26487;BME280;14425;56.136;40.360;2023-03-14T06:09:16;99121.09;;;-2.43;100.00
26487;BME280;14425;56.136;40.360;2023-03-14T06:11:41;99121.88;;;-2.22;100.00
26487;BME280;14425;56.136;40.360;2023-03-14T06:14:07;99120.09;;;-2.23;100.00
26487;BME280;14425;56.136;40.360;2023-03-14T06:16:32;99122.22;;;-1.95;100.00
26487;BME280;14425;56.136;40.360;2023-03-14T06:18:58;99144.13;;;-2.06;100.00
26487;BME280;14425;56.136;40.360;2023-03-14T06:21:23;99107.84;;;-1.84;100.00
26487;BME280;14425;56.136;40.360;2023-03-14T06:23:49;99121.06;;;-2.11;100.00
26487;BME280;14425;56.136;40.360;2023-03-14T06:26:20;99103.06;;;-2.03;100.00
26487;BME280;14425;56.136;40.360;2023-03-14T06:28:48;99125.63;;;-1.95;100.00
26487;BME280;14425;56.136;40.360;2023-03-14T06:31:13;99116.00;;;-1.89;100.00
26487;BME280;14425;56.136;40.360;2023-03-14T06:33:39;99094.28;;;-1.63;100.00
26487;BME280;14425;56.136;40.360;2023-03-14T06:36:05;99076.94;;;-1.58;100.00
26487;BME280;14425;56.136;40.360;2023-03-14T06:38:30;99082.34;;;-1.54;100.00
26487;BME280;14425;56.136;40.360;2023-03-14T06:40:56;99080.25;;;-1.59;100.00
26487;BME280;14425;56.136;40.360;2023-03-14T06:43:21;99079.72;;;-1.43;100.00
26487;BME280;14425;56.136;40.360;2023-03-14T06:45:47;99062.59;;;-1.36;100.00
26487;BME280;14425;56.136;40.360;2023-03-14T06:48:12;99077.09;;;-1.33;100.00
26487;BME280;14425;56.136;40.360;2023-03-14T06:50:38;99050.03;;;-1.46;100.00
26487;BME280;14425;56.136;40.360;2023-03-14T06:53:03;99064.09;;;-1.50;100.00
26487;BME280;14425;56.136;40.360;2023-03-14T06:55:29;99044.75;;;-1.37;100.00
26487;BME280;14425;56.136;40.360;2023-03-14T06:57:55;99045.41;;;-1.28;100.00
26487;BME280;14425;56.136;40.360;2023-03-14T07:00:20;99045.97;;;-1.20;100.00
26487;BME280;14425;56.136;40.360;2023-03-14T07:02:46;99043.09;;;-1.25;100.00
26487;BME280;14425;56.136;40.360;2023-03-14T07:05:11;99048.72;;;-1.17;100.00
26487;BME280;14425;56.136;40.360;2023-03-14T07:07:37;99049.38;;;-1.08;100.00
26487;BME280;14425;56.136;40.360;2023-03-14T07:10:02;99046.06;;;-0.95;100.00
26487;BME280;14425;56.136;40.360;2023-03-14T07:12:28;99054.34;;;-0.98;100.00
26487;BME280;14425;56.136;40.360;2023-03-14T07:14:53;99051.59;;;-1.01;100.00
26487;BME280;14425;56.136;40.360;2023-03-14T07:17:19;99047.34;;;-0.77;100.00
26487;BME280;14425;56.136;40.360;2023-03-14T07:19:44;99033.84;;;-0.40;100.00
26487;BME280;14425;56.136;40.360;2023-03-14T07:22:10;99039.13;;;-0.37;100.00
26487;BME280;14425;56.136;40.360;2023-03-14T07:24:35;99037.88;;;-0.30;100.00
26487;BME280;14425;56.136;40.360;2023-03-14T07:27:01;99034.84;;;-0.13;100.00
26487;BME280;14425;56.136;40.360;2023-03-14T07:29:26;99031.34;;;-0.15;100.00
26487;BME280;14425;56.136;40.360;2023-03-14T07:31:52;99034.84;;;-0.13;100.00
26487;BME280;14425;56.136;40.360;2023-03-14T07:34:17;99032.47;;;0.02;100.00
26487;BME280;14425;56.136;40.360;2023-03-14T07:36:44;99034.78;;;-0.26;100.00
26487;BME280;14425;56.136;40.360;2023-03-14T07:39:10;99030.75;;;-0.11;100.00
26487;BME280;14425;56.136;40.360;2023-03-14T07:41:35;99046.56;;;0.24;100.00
26487;BME280;14425;56.136;40.360;2023-03-14T07:44:00;99018.78;;;0.25;99.58
26487;BME280;14425;56.136;40.360;2023-03-14T07:46:26;99027.28;;;0.01;100.00
26487;BME280;14425;56.136;40.360;2023-03-14T07:48:51;99023.34;;;0.17;100.00
26487;BME280;14425;56.136;40.360;2023-03-14T07:51:17;99035.38;;;0.08;100.00
26487;BME280;14425;56.136;40.360;2023-03-14T07:53:42;99025.22;;;0.20;100.00
26487;BME280;14425;56.136;40.360;2023-03-14T07:56:09;99016.31;;;0.13;100.00
26487;BME280;14425;56.136;40.360;2023-03-14T07:58:34;99030.63;;;0.13;100.00
26487;BME280;14425;56.136;40.360;2023-03-14T08:01:00;99012.00;;;0.12;100.00
26487;BME280;14425;56.136;40.360;2023-03-14T08:03:28;99000.34;;;0.28;100.00
26487;BME280;14425;56.136;40.360;2023-03-14T08:05:54;98981.63;;;0.39;100.00
26487;BME280;14425;56.136;40.360;2023-03-14T08:08:19;98988.47;;;0.53;100.00
26487;BME280;14425;56.136;40.360;2023-03-14T08:10:45;98981.94;;;0.57;100.00
26487;BME280;14425;56.136;40.360;2023-03-14T08:13:11;98992.28;;;0.60;100.00
26487;BME280;14425;56.136;40.360;2023-03-14T08:15:37;98995.78;;;0.62;100.00
26487;BME280;14425;56.136;40.360;2023-03-14T08:18:04;99011.78;;;0.88;100.00
26487;BME280;14425;56.136;40.360;2023-03-14T08:20:29;98985.63;;;0.89;100.00
26487;BME280;14425;56.136;40.360;2023-03-14T08:22:56;98974.69;;;0.90;100.00
26487;BME280;14425;56.136;40.360;2023-03-14T08:25:23;99014.44;;;0.76;99.87
26487;BME280;14425;56.136;40.360;2023-03-14T08:27:48;98991.38;;;1.13;99.24
26487;BME280;14425;56.136;40.360;2023-03-14T08:30:15;99013.53;;;1.16;98.07
26487;BME280;14425;56.136;40.360;2023-03-14T08:32:41;98985.50;;;1.01;98.61
26487;BME280;14425;56.136;40.360;2023-03-14T08:35:07;98993.38;;;1.32;97.24
26487;BME280;14425;56.136;40.360;2023-03-14T08:37:34;98972.47;;;1.64;95.50
26487;BME280;14425;56.136;40.360;2023-03-14T08:40:01;99000.47;;;1.66;95.12
26487;BME280;14425;56.136;40.360;2023-03-14T08:42:35;99012.31;;;1.37;95.67
26487;BME280;14425;56.136;40.360;2023-03-14T08:45:00;98989.59;;;1.12;97.59
26487;BME280;14425;56.136;40.360;2023-03-14T08:47:26;98975.72;;;1.20;100.00
26487;BME280;14425;56.136;40.360;2023-03-14T08:49:51;98980.75;;;1.34;100.00
26487;BME280;14425;56.136;40.360;2023-03-14T08:52:17;98992.44;;;1.17;100.00
26487;BME280;14425;56.136;40.360;2023-03-14T08:54:46;98975.00;;;1.36;100.00
26487;BME280;14425;56.136;40.360;2023-03-14T08:57:12;98974.09;;;1.36;100.00
26487;BME280;14425;56.136;40.360;2023-03-14T08:59:37;98993.56;;;1.35;100.00
26487;BME280;14425;56.136;40.360;2023-03-14T09:02:03;98967.91;;;1.45;99.53
26487;BME280;14425;56.136;40.360;2023-03-14T09:04:32;98939.63;;;1.54;100.00
26487;BME280;14425;56.136;40.360;2023-03-14T09:06:59;98948.41;;;1.59;98.09
26487;BME280;14425;56.136;40.360;2023-03-14T09:09:25;98935.75;;;1.89;96.85
26487;BME280;14425;56.136;40.360;2023-03-14T09:11:52;98942.00;;;1.79;95.21
26487;BME280;14425;56.136;40.360;2023-03-14T09:14:17;98944.28;;;1.90;92.96
26487;BME280;14425;56.136;40.360;2023-03-14T09:16:43;98945.16;;;2.05;90.21
26487;BME280;14425;56.136;40.360;2023-03-14T09:19:08;98940.50;;;2.28;87.86
26487;BME280;14425;56.136;40.360;2023-03-14T09:21:34;98958.50;;;2.77;82.76
26487;BME280;14425;56.136;40.360;2023-03-14T09:23:59;98968.00;;;2.80;82.55
26487;BME280;14425;56.136;40.360;2023-03-14T09:26:25;98948.31;;;2.77;81.04
26487;BME280;14425;56.136;40.360;2023-03-14T09:28:50;98962.38;;;3.02;78.97
26487;BME280;14425;56.136;40.360;2023-03-14T09:31:16;98950.47;;;3.01;79.20
26487;BME280;14425;56.136;40.360;2023-03-14T09:33:42;98920.56;;;2.82;78.43
26487;BME280;14425;56.136;40.360;2023-03-14T09:36:08;98937.06;;;2.88;79.18
26487;BME280;14425;56.136;40.360;2023-03-14T09:38:34;98930.34;;;2.90;79.11
26487;BME280;14425;56.136;40.360;2023-03-14T09:41:01;98953.63;;;2.96;77.53
26487;BME280;14425;56.136;40.360;2023-03-14T09:43:29;98938.28;;;3.11;77.27
26487;BME280;14425;56.136;40.360;2023-03-14T09:45:58;98974.19;;;3.00;76.90
26487;BME280;14425;56.136;40.360;2023-03-14T09:48:29;98931.50;;;3.12;76.18
26487;BME280;14425;56.136;40.360;2023-03-14T09:50:58;98931.50;;;2.95;75.93
26487;BME280;14425;56.136;40.360;2023-03-14T09:53:28;98940.81;;;2.95;76.76
26487;BME280;14425;56.136;40.360;2023-03-14T09:55:57;98923.00;;;3.11;75.66
26487;BME280;14425;56.136;40.360;2023-03-14T09:58:24;98933.13;;;3.43;73.90
26487;BME280;14425;56.136;40.360;2023-03-14T10:00:52;98938.94;;;3.40;71.78
26487;BME280;14425;56.136;40.360;2023-03-14T10:03:26;98931.16;;;3.37;72.16
26487;BME280;14425;56.136;40.360;2023-03-14T10:05:54;98927.38;;;3.47;72.09
26487;BME280;14425;56.136;40.360;2023-03-14T10:08:20;98922.53;;;3.68;70.54
26487;BME280;14425;56.136;40.360;2023-03-14T10:10:46;98932.38;;;3.95;68.84
26487;BME280;14425;56.136;40.360;2023-03-14T10:13:26;98921.00;;;3.55;69.26
26487;BME280;14425;56.136;40.360;2023-03-14T10:15:54;98908.28;;;3.55;70.05
26487;BME280;14425;56.136;40.360;2023-03-14T10:18:22;98928.97;;;3.78;68.66
26487;BME280;14425;56.136;40.360;2023-03-14T10:21:04;98923.25;;;3.82;68.18
26487;BME280;14425;56.136;40.360;2023-03-14T10:23:34;98929.91;;;3.80;67.12
26487;BME280;14425;56.136;40.360;2023-03-14T10:26:14;98943.47;;;3.95;67.70
26487;BME280;14425;56.136;40.360;2023-03-14T10:28:46;98946.34;;;3.85;66.92
26487;BME280;14425;56.136;40.360;2023-03-14T10:31:13;98926.09;;;3.88;66.53
26487;BME280;14425;56.136;40.360;2023-03-14T10:33:39;98934.06;;;3.94;66.60
26487;BME280;14425;56.136;40.360;2023-03-14T10:38:39;98919.41;;;4.08;65.86
26487;BME280;14425;56.136;40.360;2023-03-14T10:41:17;98919.03;;;4.17;65.28
26487;BME280;14425;56.136;40.360;2023-03-14T10:43:44;98910.22;;;4.12;65.34
26487;BME280;14425;56.136;40.360;2023-03-14T10:46:14;98913.25;;;4.21;64.85
26487;BME280;14425;56.136;40.360;2023-03-14T10:48:40;98905.94;;;4.11;64.58
26487;BME280;14425;56.136;40.360;2023-03-14T10:51:10;98930.22;;;4.02;65.50
26487;BME280;14425;56.136;40.360;2023-03-14T10:53:55;98901.03;;;3.97;64.99
26487;BME280;14425;56.136;40.360;2023-03-14T10:56:23;98917.88;;;4.12;65.52
26487;BME280;14425;56.136;40.360;2023-03-14T10:58:52;98916.69;;;3.87;66.46
26487;BME280;14425;56.136;40.360;2023-03-14T11:04:26;98900.41;;;3.85;66.14
26487;BME280;14425;56.136;40.360;2023-03-14T11:13:00;98941.91;;;4.15;65.00
26487;BME280;14425;56.136;40.360;2023-03-14T11:21:11;98924.16;;;4.00;65.27
26487;BME280;14425;56.136;40.360;2023-03-14T11:23:46;98921.09;;;4.07;65.43
26487;BME280;14425;56.136;40.360;2023-03-14T11:26:26;98906.66;;;4.08;65.28
26487;BME280;14425;56.136;40.360;2023-03-14T11:29:12;98910.22;;;4.12;65.59
26487;BME280;14425;56.136;40.360;2023-03-14T11:31:44;98919.41;;;4.08;65.19
26487;BME280;14425;56.136;40.360;2023-03-14T11:36:52;98911.91;;;4.11;65.18
26487;BME280;14425;56.136;40.360;2023-03-14T11:39:19;98899.50;;;4.01;64.78
26487;BME280;14425;56.136;40.360;2023-03-14T11:41:51;98898.66;;;4.00;65.36
26487;BME280;14425;56.136;40.360;2023-03-14T11:46:59;98915.06;;;4.05;65.18
26487;BME280;14425;56.136;40.360;2023-03-14T11:52:00;98965.91;;;4.19;64.88
26487;BME280;14425;56.136;40.360;2023-03-14T11:57:03;98907.16;;;4.01;65.17
26487;BME280;14425;56.136;40.360;2023-03-14T11:59:45;98902.81;;;4.34;64.57
26487;BME280;14425;56.136;40.360;2023-03-14T12:02:51;98896.47;;;4.26;64.95
26487;BME280;14425;56.136;40.360;2023-03-14T12:11:04;98909.53;;;4.32;65.20
26487;BME280;14425;56.136;40.360;2023-03-14T12:13:38;98904.06;;;4.24;65.56
26487;BME280;14425;56.136;40.360;2023-03-14T12:16:07;98922.31;;;4.32;64.89
26487;BME280;14425;56.136;40.360;2023-03-14T12:18:50;98919.81;;;4.16;64.47
26487;BME280;14425;56.136;40.360;2023-03-14T12:21:20;98937.41;;;4.28;65.68
26487;BME280;14425;56.136;40.360;2023-03-14T12:23:54;98918.19;;;4.18;64.87
26487;BME280;14425;56.136;40.360;2023-03-14T12:26:23;98925.31;;;4.23;65.13
26487;BME280;14425;56.136;40.360;2023-03-14T12:31:38;98928.44;;;4.01;66.60
26487;BME280;14425;56.136;40.360;2023-03-14T12:39:59;98933.72;;;4.04;66.07
26487;BME280;14425;56.136;40.360;2023-03-14T12:50:18;98950.16;;;3.93;66.09
26487;BME280;14425;56.136;40.360;2023-03-14T13:02:21;99003.09;;;3.97;66.63
26487;BME280;14425;56.136;40.360;2023-03-14T13:05:30;98950.84;;;4.07;65.86
26487;BME280;14425;56.136;40.360;2023-03-14T13:08:01;98940.41;;;4.02;65.32
26487;BME280;14425;56.136;40.360;2023-03-14T13:10:39;98947.03;;;3.99;66.11
26487;BME280;14425;56.136;40.360;2023-03-14T13:13:24;98945.09;;;4.11;66.58
26487;BME280;14425;56.136;40.360;2023-03-14T13:16:00;98945.47;;;3.84;67.75
26487;BME280;14425;56.136;40.360;2023-03-14T13:18:44;98942.03;;;4.00;68.75
26487;BME280;14425;56.136;40.360;2023-03-14T13:21:34;98945.88;;;3.76;69.63
26487;BME280;14425;56.136;40.360;2023-03-14T13:24:05;98957.34;;;3.84;69.73
26487;BME280;14425;56.136;40.360;2023-03-14T13:26:32;98941.91;;;3.64;71.32
26487;BME280;14425;56.136;40.360;2023-03-14T13:28:59;98952.19;;;3.49;72.62
26487;BME280;14425;56.136;40.360;2023-03-14T13:31:25;98946.22;;;3.65;72.57
26487;BME280;14425;56.136;40.360;2023-03-14T13:33:59;98952.72;;;3.77;72.06
26487;BME280;14425;56.136;40.360;2023-03-14T13:36:28;98941.81;;;3.79;71.22
26487;BME280;14425;56.136;40.360;2023-03-14T13:38:59;98965.53;;;3.78;71.59
26487;BME280;14425;56.136;40.360;2023-03-14T13:41:25;98972.25;;;3.76;71.59
26487;BME280;14425;56.136;40.360;2023-03-14T13:43:58;98952.97;;;3.81;71.43
26487;BME280;14425;56.136;40.360;2023-03-14T13:46:31;98969.78;;;3.78;71.03
26487;BME280;14425;56.136;40.360;2023-03-14T13:49:04;98987.00;;;3.82;70.69
26487;BME280;14425;56.136;40.360;2023-03-14T13:51:31;98963.75;;;3.76;70.22
26487;BME280;14425;56.136;40.360;2023-03-14T13:54:03;98964.53;;;3.75;70.83
26487;BME280;14425;56.136;40.360;2023-03-14T13:56:37;98932.19;;;3.74;71.11
26487;BME280;14425;56.136;40.360;2023-03-14T13:59:22;98957.78;;;3.59;70.26